Pagina principale
METAR-TAF:

METAR-TAF

Aeroporti :

Memmingen, Germania

latitudine: 47-59-33N, longitudine: 10-14-37E, altezza: 633 m

Osservazione

Il bollettino è stato emesso 36 minuti fa, alle 12:20 UTC
Vento 15 kt da sud-ovest
Temperature 6°C
Umidità 56%
Pressione 1018 hPa
Visibilità 10 km o più
nessuna nube inferiore a 1500 m e nessun cumulonembo

METAR: EDJA 061220Z 22015KT CAVOK 06/M02 Q1018

Ora: 13:56 (12:56 UTC)

Previsione

Il bollettino è stato emesso 1 ora e 56 minuti fa, alle 11:00 UTC
Previsione valida dal 06 alle 12 UTC al 06 alle 21 UTC
Vento 11 kt da sud-ovest
Visibilità 10 km o più
nessuna nube inferiore a 1500 m e nessun cumulonembo

TAF: EDJA 061100Z 0612/0621 22011KT CAVOK

Osservazioni e previsioni meteorologiche di più di 4000 aeroporti (messaggi METAR e TAF).

Le stazioni disponibili sono rappresentate dai dischi gialli e rossi sulla carta.

Puntare il mouse per vedere il nome della stazione.

Clicca sopra per visualizzare le osservazioni e previsioni meteorologiche.

Per cambiare la mappa : fare clic sui pulsanti verdi con una croce nera per ingrandire, il pulsante verde con un trattino per diminuire, o sulla freccia verde per le mappe adiacenti.


METAR-TAF: